Time;durP1;ratioP1;P1;durP2;ratioP2;P2;SDS_P1;SDS_P2;PMS_P1;PMS_P2;Temp;Humidity;BMP_temperature;BMP_pressure;BME280_temperature;BME280_humidity;BME280_pressure;Samples;Min_cycle;Max_cycle;Signal;HPM_P1;HPM_P2
2024/03/13 00:01:56;;;;;;;19.47;11.57;;;7.50;99.90;;;;;;4160350;28;20081;-55
2024/03/13 00:03:58;;;;;;;19.17;11.20;;;7.50;99.90;;;;;;4160520;28;20822;-53
2024/03/13 00:06:00;;;;;;;18.93;12.13;;;7.50;99.90;;;;;;4160505;28;20029;-53
2024/03/13 00:08:01;;;;;;;17.70;11.43;;;7.50;99.90;;;;;;4160503;28;20037;-51
2024/03/13 00:10:04;;;;;;;18.77;11.43;;;7.50;99.90;;;;;;4160232;28;20049;-54
2024/03/13 00:12:05;;;;;;;19.43;12.17;;;7.50;99.90;;;;;;4161060;28;20433;-55
2024/03/13 00:14:08;;;;;;;18.80;11.93;;;7.50;99.90;;;;;;4159953;28;20049;-54
2024/03/13 00:16:10;;;;;;;19.30;11.20;;;7.50;99.90;;;;;;4160948;28;20029;-56
2024/03/13 00:18:11;;;;;;;17.70;11.10;;;7.50;99.90;;;;;;4159110;28;20042;-60
2024/03/13 00:20:12;;;;;;;17.57;11.87;;;7.50;99.90;;;;;;4160331;28;20034;-59
2024/03/13 00:22:18;;;;;;;17.40;10.83;;;7.50;99.90;;;;;;4159492;28;20481;-52
2024/03/13 00:24:20;;;;;;;20.97;11.90;;;7.50;99.90;;;;;;4160386;28;20087;-53
2024/03/13 00:26:21;;;;;;;19.33;11.93;;;7.50;99.90;;;;;;4158603;28;20099;-57
2024/03/13 00:28:22;;;;;;;21.97;12.60;;;7.50;99.90;;;;;;4160646;28;20104;-56
2024/03/13 00:30:23;;;;;;;23.87;12.73;;;7.50;99.90;;;;;;4160064;28;20044;-55
2024/03/13 00:32:25;;;;;;;18.20;11.83;;;7.50;99.90;;;;;;4160744;28;20064;-57
2024/03/13 00:34:26;;;;;;;18.23;12.10;;;7.50;99.90;;;;;;4160316;28;20053;-53
2024/03/13 00:36:28;;;;;;;18.83;11.20;;;7.60;99.90;;;;;;4160244;28;20029;-53
2024/03/13 00:38:30;;;;;;;18.10;11.67;;;7.60;99.90;;;;;;4159418;28;20061;-55
2024/03/13 00:40:32;;;;;;;20.73;11.33;;;7.60;99.90;;;;;;4158908;28;20045;-56
2024/03/13 00:42:33;;;;;;;17.27;11.17;;;7.60;99.90;;;;;;4160175;28;20037;-54
2024/03/13 00:44:34;;;;;;;19.63;11.03;;;7.60;99.90;;;;;;4159791;28;20075;-55
2024/03/13 00:46:36;;;;;;;18.63;10.50;;;7.60;99.90;;;;;;4159844;28;20449;-56
2024/03/13 00:48:37;;;;;;;18.50;11.90;;;7.60;99.90;;;;;;4159882;28;20091;-54
2024/03/13 00:50:39;;;;;;;18.50;11.13;;;7.60;99.90;;;;;;4161030;28;20048;-49
2024/03/13 00:52:42;;;;;;;17.90;10.57;;;7.60;99.90;;;;;;4158803;28;20041;-51
2024/03/13 00:54:44;;;;;;;17.57;10.83;;;7.60;99.90;;;;;;4159867;28;20509;-50
2024/03/13 00:56:48;;;;;;;19.70;12.03;;;7.60;99.90;;;;;;4159166;28;20045;-52
2024/03/13 00:58:49;;;;;;;21.47;11.83;;;7.60;99.90;;;;;;4160711;28;20099;-52
2024/03/13 01:00:52;;;;;;;20.57;11.90;;;7.60;99.90;;;;;;4159859;28;20467;-54
2024/03/13 01:02:53;;;;;;;17.70;10.90;;;7.60;99.90;;;;;;4160646;28;20543;-51
2024/03/13 01:04:55;;;;;;;17.80;10.60;;;7.60;99.90;;;;;;4159336;28;20092;-52
2024/03/13 01:06:56;;;;;;;19.67;12.10;;;7.60;99.90;;;;;;4159798;28;20049;-50
2024/03/13 01:08:58;;;;;;;16.97;11.77;;;7.60;99.90;;;;;;4160330;28;20017;-50
2024/03/13 01:11:00;;;;;;;18.70;11.37;;;7.60;99.90;;;;;;4159920;28;20041;-50
2024/03/13 01:13:02;;;;;;;20.27;10.13;;;7.60;99.90;;;;;;4160153;28;20103;-48
2024/03/13 01:15:04;;;;;;;17.93;11.00;;;7.60;99.90;;;;;;4159718;28;20378;-51
2024/03/13 01:17:06;;;;;;;18.90;11.33;;;7.60;99.90;;;;;;4159195;28;20441;-51
2024/03/13 01:19:07;;;;;;;19.10;11.33;;;7.70;99.90;;;;;;4159027;28;20038;-55
2024/03/13 01:21:10;;;;;;;18.00;11.47;;;7.70;99.90;;;;;;4163414;28;20037;-49
2024/03/13 01:23:11;;;;;;;18.97;10.97;;;7.70;99.90;;;;;;4161662;28;20033;-50
2024/03/13 01:25:13;;;;;;;18.00;10.57;;;7.70;99.90;;;;;;4163741;28;20034;-53
2024/03/13 01:27:14;;;;;;;19.03;11.47;;;7.70;99.90;;;;;;4162044;28;20042;-53
2024/03/13 01:29:16;;;;;;;19.33;11.40;;;7.70;99.90;;;;;;4145029;28;20053;-52
2024/03/13 01:31:18;;;;;;;16.90;10.00;;;7.70;99.90;;;;;;4161572;28;20037;-55
2024/03/13 01:33:20;;;;;;;16.70;11.47;;;7.70;99.90;;;;;;4163591;28;20029;-52
2024/03/13 01:35:21;;;;;;;16.20;10.27;;;7.70;99.90;;;;;;4161561;28;20046;-52
2024/03/13 01:39:42;;;;;;;15.93;10.33;;;7.70;99.90;;;;;;4162522;28;20072;-60
2024/03/13 01:55:48;;;;;;;16.35;9.52;;;7.80;99.90;;;;;;4163244;28;20320;-55
2024/03/13 01:58:07;;;;;;;14.40;9.13;;;7.70;99.90;;;;;;4162842;28;20117;-58
2024/03/13 02:02:29;;;;;;;16.25;8.77;;;7.70;99.90;;;;;;4162862;28;20021;-55
2024/03/13 02:04:30;;;;;;;13.87;7.67;;;7.70;99.90;;;;;;4163027;28;20041;-58
2024/03/13 02:06:32;;;;;;;16.73;9.00;;;7.70;99.90;;;;;;4160928;28;20046;-57
2024/03/13 02:08:34;;;;;;;11.00;7.43;;;7.80;99.90;;;;;;4162610;28;20387;-58
2024/03/13 02:10:35;;;;;;;14.17;8.70;;;7.80;99.90;;;;;;4161010;28;20083;-57
2024/03/13 02:12:37;;;;;;;13.67;8.00;;;7.70;99.90;;;;;;4163092;28;20447;-60
2024/03/13 02:14:38;;;;;;;12.93;8.17;;;7.80;99.90;;;;;;4160798;28;20062;-53
2024/03/13 02:16:40;;;;;;;13.10;8.53;;;7.80;99.90;;;;;;4162265;28;20557;-57
2024/03/13 02:18:41;;;;;;;12.87;7.53;;;7.80;99.90;;;;;;4161596;28;20071;-53
2024/03/13 02:20:43;;;;;;;13.83;7.07;;;7.80;99.90;;;;;;4162835;28;20473;-56
2024/03/13 02:22:46;;;;;;;15.47;8.30;;;7.80;99.90;;;;;;4162283;28;20080;-55
2024/03/13 02:24:47;;;;;;;10.63;6.83;;;7.80;99.90;;;;;;4161473;28;20127;-60
2024/03/13 02:26:49;;;;;;;12.23;7.37;;;7.80;99.90;;;;;;4161453;28;20540;-57
2024/03/13 02:28:51;;;;;;;10.03;6.33;;;7.80;99.90;;;;;;4161311;28;20045;-57
2024/03/13 02:30:53;;;;;;;10.70;6.13;;;7.80;99.90;;;;;;4161647;28;20112;-60
2024/03/13 02:32:57;;;;;;;9.70;6.27;;;7.80;99.90;;;;;;4160060;28;20037;-58
2024/03/13 02:34:58;;;;;;;13.53;7.20;;;7.80;99.90;;;;;;4161405;28;20057;-59
2024/03/13 02:37:00;;;;;;;13.80;7.37;;;7.90;99.90;;;;;;4160756;28;20490;-56
2024/03/13 02:39:02;;;;;;;12.17;7.40;;;7.90;99.90;;;;;;4161855;28;20060;-55
2024/03/13 02:41:03;;;;;;;12.80;7.20;;;7.80;99.90;;;;;;4160418;28;20073;-56
2024/03/13 02:43:04;;;;;;;12.47;7.03;;;7.90;99.90;;;;;;4160984;28;20087;-57
2024/03/13 02:45:06;;;;;;;10.73;6.60;;;7.90;99.90;;;;;;4160989;28;20079;-60
2024/03/13 02:47:07;;;;;;;10.20;6.07;;;7.90;99.90;;;;;;4161711;28;20433;-58
2024/03/13 02:49:09;;;;;;;9.80;6.50;;;7.90;99.90;;;;;;4160426;28;20046;-58
2024/03/13 02:51:11;;;;;;;9.70;6.47;;;7.90;99.90;;;;;;4162193;28;20504;-56
2024/03/13 02:53:12;;;;;;;10.00;6.10;;;7.90;99.90;;;;;;4159917;28;20075;-55
2024/03/13 02:55:13;;;;;;;9.40;6.40;;;7.90;99.90;;;;;;4161757;28;20088;-59
2024/03/13 02:57:15;;;;;;;10.57;6.70;;;7.90;99.90;;;;;;4161665;28;20080;-53
2024/03/13 02:59:18;;;;;;;10.40;5.47;;;7.90;99.90;;;;;;4161181;28;20034;-55
2024/03/13 03:01:19;;;;;;;9.20;5.70;;;8.00;99.90;;;;;;4161667;28;20025;-53
2024/03/13 03:03:21;;;;;;;9.03;5.70;;;7.90;99.90;;;;;;4160180;28;20820;-58
2024/03/13 03:05:24;;;;;;;8.40;5.67;;;7.90;99.90;;;;;;4161750;28;20464;-55
2024/03/13 03:07:25;;;;;;;12.37;6.23;;;7.90;99.90;;;;;;4143054;28;20096;-56
2024/03/13 03:09:26;;;;;;;9.27;6.13;;;7.90;99.90;;;;;;4162102;28;20022;-54
2024/03/13 03:11:28;;;;;;;10.07;5.83;;;7.90;99.90;;;;;;4160903;28;20436;-57
2024/03/13 03:13:35;;;;;;;8.13;5.40;;;7.90;99.90;;;;;;4161213;28;20421;-56
2024/03/13 03:15:38;;;;;;;10.73;6.77;;;7.90;99.90;;;;;;4160175;28;20045;-53
2024/03/13 03:17:40;;;;;;;15.40;7.97;;;7.90;99.90;;;;;;4159930;28;20056;-55
2024/03/13 03:19:41;;;;;;;13.60;7.70;;;7.90;99.90;;;;;;4160995;28;20099;-56
2024/03/13 03:21:43;;;;;;;11.70;7.10;;;7.90;99.90;;;;;;4161182;28;20042;-56
2024/03/13 03:23:44;;;;;;;16.47;8.90;;;7.90;99.90;;;;;;4159928;28;20045;-55
2024/03/13 03:25:46;;;;;;;10.93;6.40;;;8.00;99.90;;;;;;4161721;28;20120;-57
2024/03/13 03:27:47;;;;;;;10.33;6.23;;;7.90;99.90;;;;;;4161089;28;20115;-51
2024/03/13 03:29:48;;;;;;;12.23;6.87;;;8.00;99.90;;;;;;4143973;28;20030;-57
2024/03/13 03:31:49;;;;;;;13.83;8.37;;;8.00;99.90;;;;;;4160148;28;20048;-56
2024/03/13 03:33:51;;;;;;;9.50;6.70;;;8.00;99.90;;;;;;4160986;28;20029;-53
2024/03/13 03:35:53;;;;;;;14.27;5.87;;;7.90;99.90;;;;;;4160631;28;20427;-56
2024/03/13 03:37:54;;;;;;;11.50;6.03;;;8.00;99.90;;;;;;4160507;28;20405;-56
2024/03/13 03:39:56;;;;;;;13.30;8.20;;;8.00;99.90;;;;;;4160453;28;20531;-55
2024/03/13 03:41:57;;;;;;;18.37;10.17;;;8.00;99.90;;;;;;4159269;28;20045;-56
2024/03/13 03:43:59;;;;;;;20.27;11.40;;;8.00;99.90;;;;;;4160825;28;20044;-57
2024/03/13 03:46:01;;;;;;;17.57;7.97;;;8.00;99.90;;;;;;4159740;28;20100;-52
2024/03/13 03:48:02;;;;;;;9.77;6.30;;;8.00;99.90;;;;;;4160973;28;20045;-57
2024/03/13 03:50:07;;;;;;;11.03;6.63;;;8.00;99.90;;;;;;4159133;28;20099;-57
2024/03/13 03:52:08;;;;;;;12.47;5.93;;;8.00;99.90;;;;;;4160932;28;20053;-59
2024/03/13 03:54:09;;;;;;;21.40;8.00;;;8.00;99.90;;;;;;4159521;28;20049;-52
2024/03/13 03:56:12;;;;;;;20.13;9.37;;;8.00;99.90;;;;;;4160659;28;20061;-58
2024/03/13 03:58:13;;;;;;;27.57;14.03;;;7.90;99.90;;;;;;4159945;28;20034;-55
2024/03/13 04:00:16;;;;;;;13.60;7.90;;;7.90;99.90;;;;;;4160444;28;20101;-50
2024/03/13 04:02:18;;;;;;;9.63;5.50;;;8.00;99.90;;;;;;4159645;28;20021;-58
2024/03/13 04:04:20;;;;;;;9.07;4.30;;;8.00;99.90;;;;;;4159661;28;20482;-55
2024/03/13 04:06:21;;;;;;;7.83;4.37;;;8.00;99.90;;;;;;4160650;28;20053;-56
2024/03/13 04:08:23;;;;;;;8.43;4.90;;;8.00;99.90;;;;;;4141875;28;20086;-61
2024/03/13 04:10:24;;;;;;;8.07;4.60;;;8.00;99.90;;;;;;4160973;28;20495;-57
2024/03/13 04:12:27;;;;;;;5.17;3.93;;;7.90;99.90;;;;;;4159260;28;20099;-59
2024/03/13 04:14:29;;;;;;;8.50;4.00;;;8.00;99.90;;;;;;4160625;28;20449;-58
2024/03/13 04:16:31;;;;;;;7.70;4.43;;;8.00;99.90;;;;;;4158843;28;20111;-59
2024/03/13 04:18:33;;;;;;;5.37;4.17;;;8.00;99.90;;;;;;4160784;28;20064;-60
2024/03/13 04:20:34;;;;;;;6.73;4.03;;;8.00;99.90;;;;;;4159739;28;20083;-57
2024/03/13 04:22:35;;;;;;;5.87;3.93;;;8.00;99.90;;;;;;4160295;28;20042;-53
2024/03/13 04:24:36;;;;;;;6.90;4.47;;;8.00;99.90;;;;;;4159003;28;20100;-57
2024/03/13 04:26:41;;;;;;;6.07;4.10;;;8.00;99.90;;;;;;4160132;28;20042;-54
2024/03/13 04:28:45;;;;;;;6.47;4.57;;;8.00;99.90;;;;;;4159287;28;20083;-53
2024/03/13 04:30:46;;;;;;;5.47;4.20;;;7.90;99.90;;;;;;4144710;28;20037;-56
2024/03/13 04:32:49;;;;;;;8.53;4.60;;;7.90;99.90;;;;;;4143763;28;20030;-54
2024/03/13 04:34:50;;;;;;;4.93;4.10;;;8.00;99.90;;;;;;4143823;28;20046;-52
2024/03/13 04:36:51;;;;;;;6.23;4.03;;;7.90;99.90;;;;;;4145842;28;20140;-56
2024/03/13 04:38:53;;;;;;;6.33;4.30;;;7.90;99.90;;;;;;4159628;28;20096;-53
2024/03/13 04:40:54;;;;;;;5.57;4.33;;;7.90;99.90;;;;;;4159129;28;20394;-55
2024/03/13 04:42:57;;;;;;;5.20;3.80;;;7.90;99.90;;;;;;4159821;28;20034;-55
2024/03/13 04:44:59;;;;;;;4.60;3.73;;;7.90;99.90;;;;;;4160134;28;20038;-56
2024/03/13 04:47:01;;;;;;;7.00;4.93;;;7.90;99.90;;;;;;4159561;28;20793;-52
2024/03/13 04:49:05;;;;;;;7.47;4.43;;;7.90;99.90;;;;;;4159959;28;20046;-53
2024/03/13 04:51:07;;;;;;;5.87;4.27;;;7.90;99.90;;;;;;4141757;28;20054;-53
2024/03/13 04:53:08;;;;;;;5.37;4.00;;;7.90;99.90;;;;;;4160797;28;20029;-54
2024/03/13 04:55:10;;;;;;;5.80;3.90;;;7.90;99.90;;;;;;4160732;28;20053;-53
2024/03/13 04:57:12;;;;;;;5.90;3.90;;;7.90;99.90;;;;;;4163452;28;20092;-53
2024/03/13 04:59:13;;;;;;;5.93;4.20;;;7.90;99.90;;;;;;4145145;28;20034;-52
2024/03/13 05:01:18;;;;;;;6.03;4.00;;;7.90;99.90;;;;;;4162911;28;20045;-53
2024/03/13 05:03:19;;;;;;;7.13;4.27;;;7.90;99.90;;;;;;4162223;28;20107;-56
2024/03/13 05:05:21;;;;;;;6.23;4.03;;;7.90;99.90;;;;;;4164041;28;20091;-56
2024/03/13 05:07:24;;;;;;;5.63;4.80;;;7.90;99.90;;;;;;4162703;28;20446;-56
2024/03/13 05:09:25;;;;;;;5.07;4.50;;;7.90;99.90;;;;;;4163528;28;20084;-56
2024/03/13 05:11:26;;;;;;;5.30;4.37;;;7.90;99.90;;;;;;4162337;28;20034;-62
2024/03/13 05:13:28;;;;;;;5.17;4.63;;;7.80;99.90;;;;;;4163067;28;20026;-54
2024/03/13 05:15:29;;;;;;;7.90;4.70;;;7.80;99.90;;;;;;4160029;28;20045;-55
2024/03/13 05:17:30;;;;;;;6.40;5.03;;;7.90;99.90;;;;;;4162680;28;20034;-55
2024/03/13 05:19:32;;;;;;;5.87;4.80;;;7.90;99.90;;;;;;4162757;28;20045;-54
2024/03/13 05:21:33;;;;;;;6.87;4.77;;;7.90;99.90;;;;;;4160821;28;20083;-57
2024/03/13 05:23:35;;;;;;;5.10;4.47;;;7.90;99.90;;;;;;4163626;28;20052;-58
2024/03/13 05:25:36;;;;;;;6.27;4.70;;;7.90;99.90;;;;;;4161114;28;20033;-59
2024/03/13 05:27:37;;;;;;;7.53;4.47;;;7.90;99.90;;;;;;4162254;28;20100;-59
2024/03/13 05:29:38;;;;;;;7.30;4.60;;;7.90;99.90;;;;;;4161653;28;20105;-55
2024/03/13 05:31:40;;;;;;;5.30;4.53;;;7.90;99.90;;;;;;4162591;28;20049;-60
2024/03/13 05:33:41;;;;;;;7.43;4.33;;;8.00;99.90;;;;;;4161570;28;20355;-51
2024/03/13 05:35:42;;;;;;;6.73;5.10;;;8.00;99.90;;;;;;4162655;28;20038;-61
2024/03/13 05:37:45;;;;;;;7.97;5.00;;;8.00;99.90;;;;;;4160609;28;20084;-59
2024/03/13 05:39:48;;;;;;;11.43;5.30;;;7.90;99.90;;;;;;4162914;28;20524;-58
2024/03/13 05:41:49;;;;;;;7.77;4.67;;;8.00;99.90;;;;;;4161954;28;20076;-55
2024/03/13 05:43:51;;;;;;;6.50;4.47;;;8.00;99.90;;;;;;4162849;28;20465;-51
2024/03/13 05:45:53;;;;;;;5.03;3.83;;;8.00;99.90;;;;;;4161389;28;20071;-55
2024/03/13 05:47:54;;;;;;;7.37;4.90;;;8.00;99.90;;;;;;4160946;28;20045;-55
2024/03/13 05:49:56;;;;;;;5.67;4.50;;;7.90;99.90;;;;;;4162274;28;20037;-59
2024/03/13 05:51:57;;;;;;;5.90;4.43;;;8.00;99.90;;;;;;4161392;28;20103;-58
2024/03/13 05:53:58;;;;;;;6.83;4.13;;;8.00;99.90;;;;;;4163131;28;20474;-56
2024/03/13 05:56:00;;;;;;;5.40;4.37;;;8.00;99.90;;;;;;4161221;28;20143;-58
2024/03/13 05:58:01;;;;;;;4.83;3.63;;;8.00;99.90;;;;;;4162328;28;20087;-57
2024/03/13 06:00:07;;;;;;;7.23;4.50;;;8.00;99.90;;;;;;4161317;28;20092;-55
2024/03/13 06:02:08;;;;;;;9.37;4.40;;;8.00;99.90;;;;;;4161982;28;20061;-57
2024/03/13 06:04:10;;;;;;;4.67;4.00;;;8.00;99.90;;;;;;4160110;28;20025;-57
2024/03/13 06:06:11;;;;;;;5.27;3.70;;;8.10;99.90;;;;;;4162661;28;20030;-57
2024/03/13 06:08:12;;;;;;;5.97;4.10;;;8.10;99.90;;;;;;4160907;28;20041;-57
2024/03/13 06:10:14;;;;;;;9.90;7.60;;;8.00;99.90;;;;;;4161825;28;20183;-54
2024/03/13 06:12:15;;;;;;;5.73;4.37;;;8.10;99.90;;;;;;4161460;28;20363;-57
2024/03/13 06:14:17;;;;;;;14.50;4.50;;;8.10;99.90;;;;;;4161978;28;20489;-55
2024/03/13 06:16:18;;;;;;;16.00;4.90;;;8.10;99.90;;;;;;4161468;28;20037;-56
2024/03/13 06:18:19;;;;;;;6.87;4.30;;;8.10;99.90;;;;;;4161254;28;20049;-57
2024/03/13 06:20:21;;;;;;;5.40;4.40;;;8.20;99.90;;;;;;4162320;28;20072;-57
2024/03/13 06:22:22;;;;;;;5.37;4.30;;;8.20;99.90;;;;;;4161676;28;20030;-56
2024/03/13 06:24:30;;;;;;;6.10;4.07;;;8.10;99.90;;;;;;4162032;28;20092;-57
2024/03/13 06:26:31;;;;;;;9.30;3.90;;;8.20;99.90;;;;;;4161115;28;20079;-53
2024/03/13 06:30:53;;;;;;;5.57;4.18;;;8.20;99.90;;;;;;4160379;28;20037;-58
2024/03/13 06:32:54;;;;;;;7.67;4.30;;;8.20;99.90;;;;;;4161166;28;20437;-58
2024/03/13 06:34:56;;;;;;;4.80;3.70;;;8.20;99.90;;;;;;4160553;28;20072;-58
2024/03/13 06:36:57;;;;;;;4.90;3.40;;;8.20;99.90;;;;;;4161829;28;20103;-54
2024/03/13 06:38:59;;;;;;;7.77;4.97;;;8.20;99.90;;;;;;4160354;28;20096;-57
2024/03/13 06:41:00;;;;;;;5.20;3.83;;;8.20;99.90;;;;;;4161727;28;20084;-57
2024/03/13 06:43:01;;;;;;;5.87;3.60;;;8.30;99.90;;;;;;4161042;28;20025;-55
2024/03/13 06:45:02;;;;;;;6.30;3.93;;;8.30;99.90;;;;;;4144322;28;20041;-56
2024/03/13 06:47:04;;;;;;;6.13;4.50;;;8.30;99.90;;;;;;4161230;28;20067;-60
2024/03/13 06:49:06;;;;;;;5.30;4.30;;;8.40;99.90;;;;;;4161449;28;20111;-55
2024/03/13 06:51:08;;;;;;;5.73;3.63;;;8.40;99.90;;;;;;4160745;28;20037;-58
2024/03/13 06:53:09;;;;;;;8.83;4.70;;;8.30;99.90;;;;;;4161280;28;20037;-60
2024/03/13 06:55:12;;;;;;;4.87;3.93;;;8.30;99.90;;;;;;4160639;28;20418;-59
2024/03/13 06:57:14;;;;;;;8.33;5.40;;;8.30;99.90;;;;;;4161630;28;20029;-58
2024/03/13 06:59:17;;;;;;;10.87;6.57;;;8.30;99.90;;;;;;4161491;28;20389;-58
2024/03/13 07:01:18;;;;;;;5.40;4.27;;;8.20;99.90;;;;;;4160229;28;20136;-58
2024/03/13 07:03:20;;;;;;;5.77;4.57;;;8.30;99.90;;;;;;4160979;28;20045;-55
2024/03/13 07:05:23;;;;;;;6.40;3.70;;;8.20;99.90;;;;;;4143046;28;20386;-57
2024/03/13 07:07:24;;;;;;;5.67;3.90;;;8.20;99.90;;;;;;4161615;28;20107;-51
2024/03/13 07:09:26;;;;;;;5.17;3.70;;;8.20;99.90;;;;;;4160116;28;20394;-56
2024/03/13 07:11:28;;;;;;;6.97;4.47;;;8.20;99.90;;;;;;4161519;28;20026;-56
2024/03/13 07:13:29;;;;;;;6.60;4.17;;;8.10;99.90;;;;;;4160152;28;20540;-58
2024/03/13 07:15:30;;;;;;;5.80;4.27;;;8.20;99.90;;;;;;4161404;28;20440;-55
2024/03/13 07:17:32;;;;;;;5.80;4.17;;;8.10;99.90;;;;;;4158779;28;20118;-58
2024/03/13 07:19:38;;;;;;;6.13;4.50;;;8.20;99.90;;;;;;4161884;28;20037;-60
2024/03/13 07:21:40;;;;;;;5.43;4.43;;;8.20;99.90;;;;;;4160466;28;20107;-61
2024/03/13 07:23:41;;;;;;;6.10;4.23;;;8.20;99.90;;;;;;4161512;28;20033;-59
2024/03/13 07:25:43;;;;;;;5.63;4.27;;;8.10;99.90;;;;;;4160044;28;20029;-59
2024/03/13 07:27:44;;;;;;;6.60;4.10;;;8.20;99.90;;;;;;4160388;28;20049;-59
2024/03/13 07:29:45;;;;;;;5.87;4.13;;;8.20;99.90;;;;;;4160602;28;20076;-60
2024/03/13 07:31:46;;;;;;;6.43;4.20;;;8.10;99.90;;;;;;4160237;28;20103;-60
2024/03/13 07:33:50;;;;;;;7.53;3.97;;;8.10;99.90;;;;;;4160939;28;20053;-59
2024/03/13 07:35:51;;;;;;;5.80;4.30;;;8.20;99.90;;;;;;4160271;28;20098;-56
2024/03/13 07:37:52;;;;;;;8.93;6.37;;;8.20;99.90;;;;;;4160909;28;20095;-58
2024/03/13 07:39:55;;;;;;;6.13;4.77;;;8.20;99.90;;;;;;4159895;28;20079;-60
2024/03/13 07:41:56;;;;;;;7.63;3.67;;;8.20;99.90;;;;;;4161412;28;20520;-59
2024/03/13 07:43:57;;;;;;;8.70;5.07;;;8.20;99.90;;;;;;4159826;28;20103;-57
2024/03/13 07:45:59;;;;;;;7.87;4.90;;;8.20;99.90;;;;;;4161218;28;20103;-58
2024/03/13 07:48:00;;;;;;;7.77;6.17;;;8.20;99.90;;;;;;4160240;28;20037;-58
2024/03/13 07:50:04;;;;;;;10.07;6.60;;;8.20;99.90;;;;;;4160736;28;20042;-57
2024/03/13 07:52:05;;;;;;;6.87;5.33;;;8.20;99.90;;;;;;4160039;28;20095;-56
2024/03/13 07:54:07;;;;;;;5.93;4.30;;;8.20;99.90;;;;;;4161145;28;20041;-57
2024/03/13 07:56:09;;;;;;;7.70;5.23;;;8.20;99.90;;;;;;4159215;28;20053;-60
2024/03/13 07:58:10;;;;;;;5.03;3.97;;;8.20;99.90;;;;;;4160941;28;20096;-57
2024/03/13 08:00:11;;;;;;;3.70;3.00;;;8.20;99.90;;;;;;4160667;28;20017;-59
2024/03/13 08:02:14;;;;;;;4.57;3.40;;;8.20;99.90;;;;;;4160332;28;20464;-58
2024/03/13 08:04:15;;;;;;;4.73;3.50;;;8.20;99.90;;;;;;4160617;28;20021;-56
2024/03/13 08:06:16;;;;;;;4.13;2.90;;;8.20;99.90;;;;;;4159680;28;20193;-58
2024/03/13 08:08:17;;;;;;;4.73;3.30;;;8.20;99.90;;;;;;4160699;28;20030;-55
2024/03/13 08:10:21;;;;;;;5.43;3.37;;;8.20;99.90;;;;;;4159543;28;20088;-60
2024/03/13 08:12:23;;;;;;;3.27;2.80;;;8.20;99.90;;;;;;4160502;28;20053;-60
2024/03/13 08:14:24;;;;;;;7.00;5.17;;;8.20;99.90;;;;;;4159509;28;20107;-61
2024/03/13 08:16:26;;;;;;;7.13;5.10;;;8.10;99.90;;;;;;4161205;28;20030;-60
2024/03/13 08:18:28;;;;;;;9.70;5.73;;;8.10;99.90;;;;;;4159526;28;20052;-57
2024/03/13 08:20:29;;;;;;;6.77;4.63;;;8.10;99.90;;;;;;4160788;28;20100;-60
2024/03/13 08:22:31;;;;;;;7.20;5.10;;;8.10;99.90;;;;;;4159271;28;20057;-59
2024/03/13 08:24:32;;;;;;;7.03;5.27;;;8.10;99.90;;;;;;4160388;28;20041;-59
2024/03/13 08:26:34;;;;;;;7.00;4.43;;;8.10;99.90;;;;;;4159473;28;20088;-59
2024/03/13 08:28:36;;;;;;;5.90;3.67;;;8.10;99.90;;;;;;4160916;28;20138;-57
2024/03/13 08:30:39;;;;;;;7.20;3.20;;;8.20;99.90;;;;;;4162660;28;20030;-55
2024/03/13 08:32:41;;;;;;;3.90;3.00;;;8.20;99.90;;;;;;4163626;28;20128;-60
2024/03/13 08:34:45;;;;;;;5.10;3.50;;;8.20;99.90;;;;;;4162680;28;20037;-57
2024/03/13 08:36:46;;;;;;;4.73;2.40;;;8.20;99.90;;;;;;4162887;28;20410;-62
2024/03/13 08:38:48;;;;;;;6.30;3.13;;;8.20;99.90;;;;;;4163048;28;20103;-59
2024/03/13 08:40:49;;;;;;;2.10;1.77;;;8.30;99.90;;;;;;4163213;28;20071;-60
2024/03/13 08:42:51;;;;;;;2.10;1.53;;;8.30;99.90;;;;;;4162869;28;20095;-59
2024/03/13 08:44:52;;;;;;;3.13;1.73;;;8.20;99.90;;;;;;4162167;28;20079;-57
2024/03/13 08:46:53;;;;;;;2.00;1.40;;;8.20;99.90;;;;;;4163784;28;20079;-60
2024/03/13 08:48:56;;;;;;;5.20;2.23;;;8.30;99.90;;;;;;4162103;28;20041;-59
2024/03/13 08:50:59;;;;;;;2.07;1.50;;;8.20;99.90;;;;;;4163609;28;20033;-58
2024/03/13 08:53:02;;;;;;;4.00;1.90;;;8.30;99.90;;;;;;4162000;28;20444;-60
2024/03/13 08:55:05;;;;;;;2.80;2.00;;;8.30;99.90;;;;;;4163643;28;20067;-59
2024/03/13 08:57:08;;;;;;;2.40;1.63;;;8.30;99.90;;;;;;4162256;28;20092;-60
2024/03/13 08:59:11;;;;;;;4.77;3.47;;;8.30;99.90;;;;;;4163800;28;20053;-60
2024/03/13 09:01:12;;;;;;;2.43;1.63;;;8.30;99.90;;;;;;4162388;28;20045;-61
2024/03/13 09:03:14;;;;;;;2.43;1.77;;;8.30;99.90;;;;;;4163172;28;20049;-60
2024/03/13 09:05:16;;;;;;;2.80;1.30;;;8.30;99.90;;;;;;4162286;28;20559;-62
2024/03/13 09:07:17;;;;;;;1.50;1.33;;;8.30;99.90;;;;;;4162852;28;20042;-61
2024/03/13 09:09:23;;;;;;;1.60;1.40;;;8.30;99.90;;;;;;4162905;28;20013;-60
2024/03/13 09:11:24;;;;;;;2.53;1.83;;;8.30;99.90;;;;;;4144981;28;20383;-57
2024/03/13 09:13:25;;;;;;;5.60;2.20;;;8.30;99.90;;;;;;4163091;28;20106;-59
2024/03/13 09:15:26;;;;;;;2.33;1.70;;;8.30;99.90;;;;;;4162055;28;20042;-59
2024/03/13 09:17:28;;;;;;;3.50;2.03;;;8.30;99.90;;;;;;4162706;28;20123;-60
2024/03/13 09:19:29;;;;;;;4.43;3.40;;;8.30;99.90;;;;;;4162268;28;20037;-59
2024/03/13 09:21:30;;;;;;;6.33;4.10;;;8.30;99.90;;;;;;4162934;28;20458;-59
2024/03/13 09:23:32;;;;;;;7.43;3.67;;;8.30;99.90;;;;;;4161668;28;20091;-59
2024/03/13 09:25:33;;;;;;;5.03;3.57;;;8.30;99.90;;;;;;4163181;28;20029;-58
2024/03/13 09:27:34;;;;;;;2.73;2.10;;;8.30;99.90;;;;;;4161637;28;20041;-60
2024/03/13 09:29:36;;;;;;;2.93;2.40;;;8.30;99.90;;;;;;4162875;28;20037;-60
2024/03/13 09:31:41;;;;;;;3.23;2.20;;;8.30;99.90;;;;;;4161265;28;20045;-58
2024/03/13 09:33:43;;;;;;;2.50;1.87;;;8.30;99.90;;;;;;4162635;28;20104;-59
2024/03/13 09:35:44;;;;;;;4.07;2.20;;;8.30;99.90;;;;;;4161927;28;20513;-59
2024/03/13 09:37:45;;;;;;;3.77;1.47;;;8.40;99.90;;;;;;4163037;28;20474;-60
2024/03/13 09:39:46;;;;;;;3.70;2.20;;;8.30;99.90;;;;;;4161689;28;20095;-59
2024/03/13 09:41:51;;;;;;;4.50;2.43;;;8.30;99.90;;;;;;4161384;28;20042;-60
2024/03/13 09:43:53;;;;;;;4.43;3.17;;;8.40;99.90;;;;;;4161506;28;20444;-60
2024/03/13 09:45:55;;;;;;;2.47;1.50;;;8.30;99.90;;;;;;4162293;28;20087;-59
2024/03/13 09:47:56;;;;;;;2.33;1.27;;;8.40;99.90;;;;;;4162285;28;20107;-60
2024/03/13 09:50:02;;;;;;;2.70;1.50;;;8.40;99.90;;;;;;4161804;28;20155;-60
2024/03/13 09:52:04;;;;;;;2.27;1.47;;;8.40;99.90;;;;;;4161784;28;20072;-59
2024/03/13 09:54:08;;;;;;;2.60;1.60;;;8.40;99.90;;;;;;4160866;28;20045;-59
2024/03/13 09:56:13;;;;;;;3.87;2.43;;;8.40;99.90;;;;;;4161993;28;20501;-58
2024/03/13 09:58:18;;;;;;;1.77;1.50;;;8.40;99.90;;;;;;4161365;28;20518;-60
2024/03/13 10:00:19;;;;;;;2.57;2.00;;;8.40;99.90;;;;;;4162905;28;20099;-61
2024/03/13 10:02:21;;;;;;;4.90;1.50;;;8.40;99.90;;;;;;4161508;28;20033;-59
2024/03/13 10:04:26;;;;;;;1.93;0.90;;;8.40;99.90;;;;;;4162650;28;20079;-58
2024/03/13 10:06:32;;;;;;;3.50;1.33;;;8.40;99.90;;;;;;4161251;28;20075;-59
2024/03/13 10:08:34;;;;;;;2.30;1.40;;;8.40;99.90;;;;;;4162602;28;20037;-58
2024/03/13 10:10:38;;;;;;;2.03;1.53;;;8.40;99.90;;;;;;4160529;28;20053;-59
2024/03/13 10:12:41;;;;;;;1.40;1.10;;;8.50;99.90;;;;;;4162609;28;20038;-59
2024/03/13 10:14:43;;;;;;;1.43;1.30;;;8.40;99.90;;;;;;4161080;28;20049;-58
2024/03/13 10:16:50;;;;;;;1.27;0.80;;;8.40;99.90;;;;;;4162284;28;20046;-59
2024/03/13 10:18:52;;;;;;;1.47;1.00;;;8.50;99.90;;;;;;4161542;28;20136;-59
2024/03/13 10:21:14;;;;;;;5.20;1.27;;;8.50;99.90;;;;;;4161981;28;20045;-58
2024/03/13 10:23:20;;;;;;;2.80;1.70;;;8.50;99.90;;;;;;4161571;28;20489;-55
2024/03/13 10:25:21;;;;;;;1.63;1.07;;;8.50;99.90;;;;;;4161352;28;20547;-59
2024/03/13 10:27:24;;;;;;;2.53;0.70;;;8.50;99.90;;;;;;4161042;28;20054;-57
2024/03/13 10:29:26;;;;;;;5.17;0.83;;;8.50;99.90;;;;;;4161840;28;20557;-56
2024/03/13 10:31:29;;;;;;;1.03;0.93;;;8.50;99.90;;;;;;4161805;28;20018;-59
2024/03/13 10:33:31;;;;;;;1.47;0.70;;;8.50;99.90;;;;;;4161144;28;20045;-57
2024/03/13 10:35:32;;;;;;;1.27;0.60;;;8.50;99.90;;;;;;4162474;28;20033;-58
2024/03/13 10:37:35;;;;;;;2.67;0.70;;;8.40;99.90;;;;;;4160869;28;20119;-59
2024/03/13 10:39:36;;;;;;;3.73;2.33;;;8.40;99.90;;;;;;4161609;28;20453;-57
2024/03/13 10:41:44;;;;;;;1.40;0.70;;;8.40;99.90;;;;;;4161099;28;20469;-59
2024/03/13 10:43:46;;;;;;;1.13;0.50;;;8.40;99.90;;;;;;4161902;28;20076;-58
2024/03/13 10:45:48;;;;;;;1.43;0.87;;;8.40;99.90;;;;;;4160261;28;20030;-59
2024/03/13 10:47:50;;;;;;;1.00;0.60;;;8.40;99.90;;;;;;4162360;28;20025;-55
2024/03/13 10:49:51;;;;;;;1.07;0.70;;;8.30;99.90;;;;;;4161058;28;20037;-56
2024/03/13 10:52:00;;;;;;;2.20;0.97;;;8.40;99.90;;;;;;4161494;28;20033;-56
2024/03/13 10:54:04;;;;;;;0.77;0.60;;;8.40;99.90;;;;;;4160458;28;20103;-55
2024/03/13 10:56:15;;;;;;;1.00;0.90;;;8.40;99.90;;;;;;4161851;28;20025;-58
2024/03/13 10:58:20;;;;;;;3.53;1.03;;;8.40;99.90;;;;;;4160496;28;20087;-59
2024/03/13 11:00:21;;;;;;;0.87;0.80;;;8.40;99.90;;;;;;4162323;28;20107;-59
2024/03/13 11:02:23;;;;;;;0.77;0.67;;;8.40;99.90;;;;;;4160570;28;20127;-58